createdAt,value
2022-08-29T00:00:54.249Z,20
2022-08-29T00:01:54.237Z,20
2022-08-29T00:02:54.243Z,20
2022-08-29T00:03:54.216Z,20
2022-08-29T00:04:54.209Z,20
2022-08-29T00:05:54.229Z,20
2022-08-29T00:06:54.192Z,20
2022-08-29T00:07:54.176Z,20
2022-08-29T00:08:54.162Z,20
2022-08-29T00:09:54.153Z,20
2022-08-29T00:10:54.142Z,20
2022-08-29T00:11:54.132Z,20
2022-08-29T00:12:54.123Z,20
2022-08-29T00:13:54.124Z,20
2022-08-29T00:14:54.096Z,20
2022-08-29T00:15:54.094Z,20
2022-08-29T00:16:54.078Z,20
2022-08-29T00:17:54.067Z,20
2022-08-29T00:18:54.055Z,20
2022-08-29T00:19:54.049Z,20
2022-08-29T00:20:54.033Z,20
2022-08-29T00:21:54.025Z,20
2022-08-29T00:22:54.008Z,20
2022-08-29T00:23:54.001Z,20
2022-08-29T00:24:53.990Z,20
2022-08-29T00:25:53.998Z,20
2022-08-29T00:26:53.965Z,20
2022-08-29T00:27:53.957Z,20
2022-08-29T00:28:53.948Z,20
2022-08-29T00:29:53.932Z,20
2022-08-29T00:30:53.922Z,20
2022-08-29T00:31:53.922Z,20
2022-08-29T00:32:53.919Z,20
2022-08-29T00:33:53.892Z,20
2022-08-29T00:34:53.884Z,20
2022-08-29T00:35:53.871Z,20
2022-08-29T00:36:53.860Z,20
2022-08-29T00:37:53.857Z,20
2022-08-29T00:38:53.836Z,20
2022-08-29T00:39:53.828Z,20
2022-08-29T00:40:53.815Z,20
2022-08-29T00:41:53.802Z,20
2022-08-29T00:42:53.798Z,20
2022-08-29T00:43:53.789Z,20
2022-08-29T00:44:53.787Z,20
2022-08-29T00:45:53.764Z,20
2022-08-29T00:46:53.756Z,20
2022-08-29T00:47:53.742Z,20
2022-08-29T00:48:53.731Z,20
2022-08-29T00:49:53.722Z,20
2022-08-29T00:50:53.723Z,20
2022-08-29T00:51:53.720Z,20
2022-08-29T00:52:53.688Z,20
2022-08-29T00:53:53.676Z,20
2022-08-29T00:54:53.666Z,20
2022-08-29T00:55:53.666Z,20
2022-08-29T00:56:53.645Z,20
2022-08-29T00:57:53.653Z,20
2022-08-29T00:58:53.615Z,20
2022-08-29T00:59:53.609Z,20
2022-08-29T01:00:53.604Z,20
2022-08-29T01:01:53.586Z,20
2022-08-29T01:02:53.572Z,20
2022-08-29T01:03:53.576Z,20
2022-08-29T01:04:53.560Z,20
2022-08-29T01:05:53.544Z,20
2022-08-29T01:06:53.562Z,20
2022-08-29T01:07:53.524Z,20
2022-08-29T01:08:53.518Z,20
2022-08-29T01:09:53.503Z,20
2022-08-29T01:10:53.492Z,20
2022-08-29T01:11:53.506Z,20
2022-08-29T01:12:53.464Z,20
2022-08-29T01:13:53.483Z,20
2022-08-29T01:14:53.445Z,20
2022-08-29T01:15:53.432Z,20
2022-08-29T01:16:53.417Z,20
2022-08-29T01:17:53.420Z,20
2022-08-29T01:18:53.399Z,20
2022-08-29T01:19:53.389Z,20
2022-08-29T01:20:53.377Z,20
2022-08-29T01:21:53.369Z,20
2022-08-29T01:22:53.357Z,20
2022-08-29T01:23:53.351Z,20
2022-08-29T01:24:53.332Z,20
2022-08-29T01:25:53.330Z,20
2022-08-29T01:26:53.312Z,20
2022-08-29T01:27:53.301Z,20
2022-08-29T01:28:53.288Z,20
2022-08-29T01:29:53.301Z,20
2022-08-29T01:30:53.269Z,20
2022-08-29T01:31:53.305Z,20
2022-08-29T01:32:53.262Z,20
2022-08-29T01:33:53.236Z,20
2022-08-29T01:34:53.236Z,20
2022-08-29T01:35:53.242Z,20
2022-08-29T01:36:53.207Z,20
2022-08-29T01:37:53.202Z,20
2022-08-29T01:38:53.204Z,20
2022-08-29T01:39:53.181Z,20
2022-08-29T01:40:53.168Z,20
2022-08-29T01:41:53.171Z,20
2022-08-29T01:42:53.146Z,20
2022-08-29T01:43:53.136Z,20
2022-08-29T01:44:53.131Z,20
2022-08-29T01:45:53.109Z,20
2022-08-29T01:46:53.102Z,20
2022-08-29T01:47:53.106Z,20
2022-08-29T01:48:53.077Z,20
2022-08-29T01:49:53.077Z,20
2022-08-29T01:50:53.064Z,20
2022-08-29T01:51:53.050Z,20
2022-08-29T01:52:53.041Z,20
2022-08-29T01:53:53.035Z,20
2022-08-29T01:54:53.019Z,20
2022-08-29T01:55:53.010Z,20
2022-08-29T01:56:53.004Z,20
2022-08-29T01:57:52.989Z,20
2022-08-29T01:58:52.979Z,20
2022-08-29T01:59:52.963Z,20
2022-08-29T02:00:52.955Z,20
2022-08-29T02:01:52.958Z,20
2022-08-29T02:02:52.943Z,20
2022-08-29T02:03:52.922Z,20
2022-08-29T02:04:52.917Z,20
2022-08-29T02:05:52.903Z,20
2022-08-29T02:06:52.892Z,20
2022-08-29T02:07:52.882Z,20
2022-08-29T02:08:52.873Z,20
2022-08-29T02:09:52.870Z,20
2022-08-29T02:10:52.861Z,20
2022-08-29T02:11:52.837Z,20
2022-08-29T02:12:52.834Z,20
2022-08-29T02:13:52.852Z,20
2022-08-29T02:14:52.806Z,20
2022-08-29T02:15:52.805Z,20
2022-08-29T02:16:52.807Z,20
2022-08-29T02:17:52.776Z,20
2022-08-29T02:18:52.770Z,20
2022-08-29T02:19:52.756Z,20
2022-08-29T02:20:52.741Z,20
2022-08-29T02:21:52.734Z,20
2022-08-29T02:22:52.754Z,20
2022-08-29T02:23:52.714Z,20
2022-08-29T02:24:52.715Z,20
2022-08-29T02:25:52.692Z,20
2022-08-29T02:26:52.687Z,20
2022-08-29T02:27:52.675Z,20
2022-08-29T02:28:52.684Z,20
2022-08-29T02:29:52.654Z,20
2022-08-29T02:30:52.643Z,20
2022-08-29T02:31:52.629Z,20
2022-08-29T02:32:52.615Z,20
2022-08-29T02:33:52.608Z,20
2022-08-29T02:34:52.604Z,20
2022-08-29T02:35:52.585Z,20
2022-08-29T02:36:52.591Z,20
2022-08-29T02:37:52.565Z,20
2022-08-29T02:38:52.554Z,20
2022-08-29T02:39:52.540Z,20
2022-08-29T02:40:52.537Z,20
2022-08-29T02:41:52.522Z,20
2022-08-29T02:42:52.515Z,20
2022-08-29T02:43:52.498Z,20
2022-08-29T02:44:52.490Z,20
2022-08-29T02:45:52.480Z,20
2022-08-29T02:46:52.467Z,20
2022-08-29T02:47:52.468Z,20
2022-08-29T02:48:52.444Z,20
2022-08-29T02:49:52.438Z,20
2022-08-29T02:50:52.431Z,20
2022-08-29T02:51:52.413Z,20
2022-08-29T02:52:52.403Z,20
2022-08-29T02:53:52.403Z,20
2022-08-29T02:54:52.386Z,20
2022-08-29T02:55:52.376Z,20
2022-08-29T02:56:52.369Z,20
2022-08-29T02:57:52.349Z,20
2022-08-29T02:58:52.351Z,20
2022-08-29T02:59:52.329Z,20
2022-08-29T03:00:52.323Z,24
2022-08-29T03:01:52.310Z,24
2022-08-29T03:02:52.312Z,24
2022-08-29T03:03:52.287Z,24
2022-08-29T03:04:52.277Z,24
2022-08-29T03:05:52.262Z,24
2022-08-29T03:06:52.256Z,24
2022-08-29T03:07:52.252Z,24
2022-08-29T03:08:52.226Z,24
2022-08-29T03:09:52.223Z,24
2022-08-29T03:10:52.228Z,24
2022-08-29T03:11:52.195Z,24
2022-08-29T03:12:52.189Z,24
2022-08-29T03:13:52.201Z,24
2022-08-29T03:14:52.193Z,24
2022-08-29T03:15:52.164Z,24
2022-08-29T03:16:52.172Z,24
2022-08-29T03:17:52.134Z,24
2022-08-29T03:18:52.122Z,24
2022-08-29T03:19:52.120Z,24
2022-08-29T03:20:52.101Z,24
2022-08-29T03:21:52.094Z,24
2022-08-29T03:22:52.085Z,24
2022-08-29T03:23:52.073Z,24
2022-08-29T03:24:52.067Z,24
2022-08-29T03:25:52.074Z,24
2022-08-29T03:26:52.038Z,24
2022-08-29T03:27:52.039Z,24
2022-08-29T03:28:52.013Z,24
2022-08-29T03:29:52.003Z,24
2022-08-29T03:30:52.000Z,24
2022-08-29T03:31:51.985Z,24
2022-08-29T03:32:51.973Z,24
2022-08-29T03:33:51.960Z,24
2022-08-29T03:34:51.951Z,24
2022-08-29T03:35:51.945Z,24
2022-08-29T03:36:51.928Z,24
2022-08-29T03:37:51.917Z,24
2022-08-29T03:38:51.971Z,24
2022-08-29T03:39:51.924Z,24
2022-08-29T03:40:51.881Z,24
2022-08-29T03:41:51.879Z,24
2022-08-29T03:42:51.879Z,24
2022-08-29T03:43:51.865Z,24
2022-08-29T03:44:51.845Z,24
2022-08-29T03:45:51.834Z,24
2022-08-29T03:46:51.831Z,24
2022-08-29T03:47:51.808Z,24
2022-08-29T03:48:51.800Z,24
2022-08-29T03:49:51.789Z,24
2022-08-29T03:50:51.793Z,24
2022-08-29T03:51:51.770Z,24
2022-08-29T03:52:51.754Z,24
2022-08-29T03:53:51.743Z,28
2022-08-29T03:54:51.729Z,28
2022-08-29T03:55:51.724Z,28
2022-08-29T03:56:51.717Z,28
2022-08-29T03:57:51.725Z,28
2022-08-29T03:58:51.694Z,28
2022-08-29T03:59:51.683Z,24
2022-08-29T04:00:51.665Z,28
2022-08-29T04:01:51.655Z,28
2022-08-29T04:02:51.644Z,28
2022-08-29T04:03:51.639Z,28
2022-08-29T04:04:51.623Z,28
2022-08-29T04:05:51.612Z,32
2022-08-29T04:06:51.607Z,28
2022-08-29T04:07:51.592Z,32
2022-08-29T04:08:51.584Z,32
2022-08-29T04:09:51.564Z,36
2022-08-29T04:10:51.562Z,36
2022-08-29T04:11:51.548Z,36
2022-08-29T04:12:51.539Z,28
2022-08-29T04:13:51.556Z,32
2022-08-29T04:14:51.517Z,32
2022-08-29T04:15:51.500Z,32
2022-08-29T04:16:51.494Z,36
2022-08-29T04:17:51.484Z,40
2022-08-29T04:18:51.469Z,44
2022-08-29T04:19:51.467Z,52
2022-08-29T04:20:51.454Z,56
2022-08-29T04:21:51.436Z,60
2022-08-29T04:22:51.425Z,68
2022-08-29T04:23:51.420Z,72
2022-08-29T04:24:51.402Z,84
2022-08-29T04:25:51.408Z,92
2022-08-29T04:26:51.381Z,100
2022-08-29T04:27:51.375Z,108
2022-08-29T04:28:51.363Z,116
2022-08-29T04:29:51.352Z,128
2022-08-29T04:30:51.337Z,144
2022-08-29T04:31:51.358Z,152
2022-08-29T04:32:51.321Z,168
2022-08-29T04:33:51.307Z,184
2022-08-29T04:34:51.303Z,180
2022-08-29T04:35:51.286Z,192
2022-08-29T04:36:51.287Z,208
2022-08-29T04:37:51.264Z,220
2022-08-29T04:38:51.255Z,240
2022-08-29T04:39:51.243Z,252
2022-08-29T04:40:51.227Z,308
2022-08-29T04:41:51.219Z,300
2022-08-29T04:42:51.231Z,312
2022-08-29T04:43:51.213Z,336
2022-08-29T04:44:51.189Z,348
2022-08-29T04:45:51.177Z,364
2022-08-29T04:46:51.169Z,376
2022-08-29T04:47:51.152Z,396
2022-08-29T04:48:51.155Z,412
2022-08-29T04:49:51.159Z,424
2022-08-29T04:50:51.127Z,436
2022-08-29T04:51:51.112Z,448
2022-08-29T04:52:51.100Z,460
2022-08-29T04:53:51.088Z,472
2022-08-29T04:54:51.082Z,484
2022-08-29T04:55:51.066Z,504
2022-08-29T04:56:51.098Z,520
2022-08-29T04:57:51.071Z,524
2022-08-29T04:58:51.046Z,528
2022-08-29T04:59:51.036Z,540
2022-08-29T05:00:51.015Z,556
2022-08-29T05:01:51.008Z,560
2022-08-29T05:02:51.036Z,568
2022-08-29T05:03:50.987Z,552
2022-08-29T05:04:50.968Z,520
2022-08-29T05:05:50.958Z,488
2022-08-29T05:06:50.959Z,488
2022-08-29T05:07:50.938Z,488
2022-08-29T05:08:50.965Z,488
2022-08-29T05:09:50.917Z,496
2022-08-29T05:10:50.905Z,508
2022-08-29T05:11:50.898Z,528
2022-08-29T05:12:50.900Z,536
2022-08-29T05:13:50.877Z,552
2022-08-29T05:14:50.867Z,572
2022-08-29T05:15:50.849Z,592
2022-08-29T05:16:50.843Z,612
2022-08-29T05:17:50.839Z,648
2022-08-29T05:18:50.825Z,688
2022-08-29T05:19:50.810Z,728
2022-08-29T05:20:50.807Z,760
2022-08-29T05:21:50.789Z,804
2022-08-29T05:22:50.782Z,844
2022-08-29T05:23:50.764Z,876
2022-08-29T05:24:50.754Z,924
2022-08-29T05:25:50.743Z,976
2022-08-29T05:26:50.739Z,1016
2022-08-29T05:27:50.720Z,1040
2022-08-29T05:28:50.713Z,1064
2022-08-29T05:29:50.708Z,1096
2022-08-29T05:30:50.691Z,1120
2022-08-29T05:31:50.682Z,1152
2022-08-29T05:32:50.682Z,1188
2022-08-29T05:33:50.659Z,1220
2022-08-29T05:34:50.654Z,1260
2022-08-29T05:35:50.655Z,1300
2022-08-29T05:36:50.626Z,1344
2022-08-29T05:37:50.618Z,1376
2022-08-29T05:38:50.604Z,1384
2022-08-29T05:39:50.597Z,1408
2022-08-29T05:40:50.612Z,1432
2022-08-29T05:41:50.604Z,1428
2022-08-29T05:42:50.565Z,1456
2022-08-29T05:43:50.548Z,1500
2022-08-29T05:44:50.541Z,1568
2022-08-29T05:45:50.537Z,1656
2022-08-29T05:46:50.517Z,1796
2022-08-29T05:47:50.537Z,1892
2022-08-29T05:48:50.495Z,1928
2022-08-29T05:49:50.486Z,1996
2022-08-29T05:50:50.473Z,2408
2022-08-29T05:51:50.465Z,2632
2022-08-29T05:52:50.454Z,2596
2022-08-29T05:53:50.454Z,2780
2022-08-29T05:54:50.437Z,2920
2022-08-29T05:55:50.419Z,2948
2022-08-29T05:56:50.416Z,3044
2022-08-29T05:57:50.400Z,3112
2022-08-29T05:58:51.117Z,3148
2022-08-29T05:59:50.395Z,3152
2022-08-29T06:00:50.374Z,3116
2022-08-29T06:01:50.472Z,3064
2022-08-29T06:02:50.343Z,3072
2022-08-29T06:03:50.336Z,3080
2022-08-29T06:04:50.330Z,2956
2022-08-29T06:05:50.316Z,2860
2022-08-29T06:06:50.305Z,2964
2022-08-29T06:07:50.300Z,3004
2022-08-29T06:08:50.284Z,3144
2022-08-29T06:09:50.275Z,3252
2022-08-29T06:10:50.273Z,3236
2022-08-29T06:11:50.249Z,3228
2022-08-29T06:12:50.244Z,3212
2022-08-29T06:13:50.241Z,3152
2022-08-29T06:14:50.219Z,3140
2022-08-29T06:15:50.212Z,3484
2022-08-29T06:16:52.785Z,3644
2022-08-29T06:21:50.095Z,3564
2022-08-29T06:21:50.160Z,3692
2022-08-29T06:21:50.216Z,3588
2022-08-29T06:21:50.246Z,4004
2022-08-29T06:21:51.167Z,4172
2022-08-29T06:22:50.193Z,3992
2022-08-29T06:23:50.124Z,3660
2022-08-29T06:24:50.116Z,3828
2022-08-29T06:25:50.104Z,3780
2022-08-29T06:26:50.101Z,3744
2022-08-29T06:27:50.084Z,3756
2022-08-29T06:28:50.083Z,3716
2022-08-29T06:29:50.060Z,3652
2022-08-29T06:30:50.047Z,3896
2022-08-29T06:31:50.039Z,4164
2022-08-29T06:32:50.037Z,4072
2022-08-29T06:33:50.024Z,4760
2022-08-29T06:34:50.011Z,4324
2022-08-29T06:35:49.994Z,4660
2022-08-29T06:36:49.982Z,4852
2022-08-29T06:37:49.988Z,5592
2022-08-29T06:38:49.958Z,5232
2022-08-29T06:39:49.965Z,4944
2022-08-29T06:40:49.950Z,5816
2022-08-29T06:41:49.932Z,5564
2022-08-29T06:42:49.919Z,5396
2022-08-29T06:43:49.904Z,5656
2022-08-29T06:44:49.893Z,7060
2022-08-29T06:45:49.904Z,7492
2022-08-29T06:46:49.866Z,6396
2022-08-29T06:47:49.857Z,6184
2022-08-29T06:48:49.847Z,6288
2022-08-29T06:49:49.837Z,7260
2022-08-29T06:50:49.841Z,5960
2022-08-29T06:51:49.900Z,5380
2022-08-29T06:52:49.809Z,5344
2022-08-29T06:53:49.798Z,5344
2022-08-29T06:54:49.791Z,5080
2022-08-29T06:55:49.768Z,4636
2022-08-29T06:56:49.766Z,4444
2022-08-29T06:57:49.759Z,4444
2022-08-29T06:58:49.748Z,4476
2022-08-29T06:59:49.727Z,4600
2022-08-29T07:00:49.715Z,4760
2022-08-29T07:01:49.709Z,4744
2022-08-29T07:02:49.712Z,4520
2022-08-29T07:03:49.716Z,4288
2022-08-29T07:04:49.685Z,4068
2022-08-29T07:05:49.714Z,3984
2022-08-29T07:06:49.656Z,3940
2022-08-29T07:07:49.678Z,4092
2022-08-29T07:08:49.643Z,4324
2022-08-29T07:09:49.618Z,4692
2022-08-29T07:10:49.606Z,5088
2022-08-29T07:11:49.633Z,5412
2022-08-29T07:12:49.591Z,5648
2022-08-29T07:13:49.586Z,5596
2022-08-29T07:14:49.566Z,5532
2022-08-29T07:15:49.556Z,5428
2022-08-29T07:16:49.575Z,5444
2022-08-29T07:17:49.562Z,5564
2022-08-29T07:18:49.523Z,5624
2022-08-29T07:19:49.516Z,5828
2022-08-29T07:20:49.525Z,6080
2022-08-29T07:21:49.511Z,6400
2022-08-29T07:22:49.502Z,6572
2022-08-29T07:23:49.474Z,6664
2022-08-29T07:24:49.506Z,6824
2022-08-29T07:25:49.535Z,7292
2022-08-29T07:26:49.504Z,7284
2022-08-29T07:27:49.432Z,7324
2022-08-29T07:28:49.424Z,7220
2022-08-29T07:29:49.434Z,6764
2022-08-29T07:30:49.397Z,6532
2022-08-29T07:31:49.394Z,6472
2022-08-29T07:32:49.388Z,6548
2022-08-29T07:33:49.358Z,7148
2022-08-29T07:34:49.360Z,7664
2022-08-29T07:35:49.368Z,9804
2022-08-29T07:36:49.353Z,9436
2022-08-29T07:37:49.411Z,8456
2022-08-29T07:38:49.315Z,9292
2022-08-29T07:39:49.314Z,9324
2022-08-29T07:40:49.335Z,10700
2022-08-29T07:41:49.298Z,9984
2022-08-29T07:42:49.265Z,10532
2022-08-29T07:43:49.253Z,8812
2022-08-29T07:44:49.256Z,8896
2022-08-29T07:45:49.249Z,8476
2022-08-29T07:46:49.236Z,9792
2022-08-29T07:47:49.216Z,7380
2022-08-29T07:48:49.201Z,8752
2022-08-29T07:49:49.192Z,8880
2022-08-29T07:50:49.176Z,9112
2022-08-29T07:51:49.166Z,9160
2022-08-29T07:52:49.175Z,7444
2022-08-29T07:53:49.159Z,8628
2022-08-29T07:54:49.139Z,8600
2022-08-29T07:55:49.133Z,8832
2022-08-29T07:56:49.109Z,8656
2022-08-29T07:57:49.106Z,8796
2022-08-29T07:58:49.128Z,9148
2022-08-29T07:59:49.082Z,10276
2022-08-29T08:00:49.117Z,10384
2022-08-29T08:01:49.068Z,9656
2022-08-29T08:02:49.052Z,9636
2022-08-29T08:03:49.037Z,9612
2022-08-29T08:04:49.026Z,8936
2022-08-29T08:05:49.018Z,9676
2022-08-29T08:06:49.002Z,10036
2022-08-29T08:07:49.011Z,10484
2022-08-29T08:08:48.990Z,9284
2022-08-29T08:09:48.968Z,9200
2022-08-29T08:10:48.964Z,9372
2022-08-29T08:11:48.955Z,9872
2022-08-29T08:12:48.940Z,10508
2022-08-29T08:13:48.931Z,10136
2022-08-29T08:14:48.917Z,10120
2022-08-29T08:15:48.914Z,10148
2022-08-29T08:16:48.898Z,9708
2022-08-29T08:17:48.894Z,9416
2022-08-29T08:18:48.872Z,9716
2022-08-29T08:19:48.862Z,9928
2022-08-29T08:20:48.857Z,8536
2022-08-29T08:21:48.847Z,9352
2022-08-29T08:22:48.839Z,9516
2022-08-29T08:23:48.845Z,12072
2022-08-29T08:24:48.830Z,12168
2022-08-29T08:25:48.806Z,12548
2022-08-29T08:26:48.793Z,12920
2022-08-29T08:27:48.797Z,12636
2022-08-29T08:28:48.764Z,12536
2022-08-29T08:29:48.756Z,16608
2022-08-29T08:30:48.757Z,19872
2022-08-29T08:31:48.818Z,16960
2022-08-29T08:32:48.724Z,15120
2022-08-29T08:33:48.780Z,16960
2022-08-29T08:34:48.707Z,12124
2022-08-29T08:35:48.703Z,11456
2022-08-29T08:36:48.721Z,11252
2022-08-29T08:37:48.689Z,18208
2022-08-29T08:38:48.655Z,13628
2022-08-29T08:39:48.645Z,17088
2022-08-29T08:40:48.644Z,17152
2022-08-29T08:41:48.634Z,17024
2022-08-29T08:42:48.631Z,15884
2022-08-29T08:43:48.606Z,19104
2022-08-29T08:44:48.592Z,22816
2022-08-29T08:45:48.586Z,25568
2022-08-29T08:46:48.586Z,30368
2022-08-29T08:47:48.566Z,32288
2022-08-29T08:48:48.566Z,30560
2022-08-29T08:49:48.562Z,30208
2022-08-29T08:50:48.599Z,22848
2022-08-29T08:51:48.523Z,36288
2022-08-29T08:52:48.519Z,33408
2022-08-29T08:53:48.506Z,34816
2022-08-29T08:54:48.494Z,35936
2022-08-29T08:55:48.486Z,36448
2022-08-29T08:56:48.474Z,38208
2022-08-29T08:57:48.467Z,37504
2022-08-29T08:58:48.438Z,34944
2022-08-29T08:59:48.430Z,28576
2022-08-29T09:00:48.437Z,29760
2022-08-29T09:01:48.408Z,24768
2022-08-29T09:02:48.410Z,22592
2022-08-29T09:03:48.404Z,18400
2022-08-29T09:04:48.398Z,42176
2022-08-29T09:05:48.371Z,47584
2022-08-29T09:06:48.544Z,54176
2022-08-29T09:07:48.352Z,47104
2022-08-29T09:08:48.352Z,48128
2022-08-29T09:09:48.324Z,47328
2022-08-29T09:10:48.315Z,48768
2022-08-29T09:11:48.318Z,50624
2022-08-29T09:12:48.291Z,49792
2022-08-29T09:13:48.279Z,48160
2022-08-29T09:14:48.365Z,44352
2022-08-29T09:15:48.265Z,40448
2022-08-29T09:16:48.246Z,35904
2022-08-29T09:17:48.246Z,19680
2022-08-29T09:18:48.239Z,12520
2022-08-29T09:19:48.214Z,39296
2022-08-29T09:20:48.212Z,28192
2022-08-29T09:21:48.228Z,39680
2022-08-29T09:22:48.181Z,29664
2022-08-29T09:23:48.204Z,22656
2022-08-29T09:24:48.161Z,30336
2022-08-29T09:25:48.165Z,25408
2022-08-29T09:26:48.154Z,55904
2022-08-29T09:27:48.128Z,14428
2022-08-29T09:28:48.121Z,26464
2022-08-29T09:29:48.112Z,39104
2022-08-29T09:30:48.100Z,14360
2022-08-29T09:31:48.091Z,19584
2022-08-29T09:32:48.099Z,17696
2022-08-29T09:33:48.127Z,17792
2022-08-29T09:34:48.080Z,16144
2022-08-29T09:35:48.060Z,11272
2022-08-29T09:36:48.035Z,10952
2022-08-29T09:37:48.035Z,11272
2022-08-29T09:38:48.017Z,11432
2022-08-29T09:39:48.012Z,10268
2022-08-29T09:40:48.008Z,9980
2022-08-29T09:41:47.994Z,10160
2022-08-29T09:42:47.968Z,11376
2022-08-29T09:43:47.963Z,14244
2022-08-29T09:44:48.563Z,16416
2022-08-29T09:45:47.937Z,17632
2022-08-29T09:46:48.012Z,19040
2022-08-29T09:47:47.926Z,18560
2022-08-29T09:48:47.920Z,13908
2022-08-29T09:49:47.914Z,12128
2022-08-29T09:50:47.895Z,10764
2022-08-29T09:51:47.878Z,10484
2022-08-29T09:52:47.866Z,10500
2022-08-29T09:53:47.874Z,11036
2022-08-29T09:54:47.844Z,11112
2022-08-29T09:55:47.835Z,11720
2022-08-29T09:56:47.822Z,12500
2022-08-29T09:57:47.930Z,14764
2022-08-29T09:58:48.797Z,16076
2022-08-29T09:59:47.790Z,15760
2022-08-29T10:00:47.775Z,17312
2022-08-29T10:01:47.920Z,42976
2022-08-29T10:02:47.753Z,22336
2022-08-29T10:03:47.744Z,63104
2022-08-29T10:04:47.744Z,62656
2022-08-29T10:05:47.757Z,55872
2022-08-29T10:06:47.726Z,35712
2022-08-29T10:07:47.705Z,56032
2022-08-29T10:08:47.697Z,23968
2022-08-29T10:09:47.681Z,56576
2022-08-29T10:10:47.696Z,34752
2022-08-29T10:11:47.681Z,15180
2022-08-29T10:12:47.659Z,14096
2022-08-29T10:13:47.644Z,14408
2022-08-29T10:14:47.638Z,14244
2022-08-29T10:15:47.621Z,13036
2022-08-29T10:16:47.611Z,11352
2022-08-29T10:17:47.597Z,14316
2022-08-29T10:18:47.585Z,12920
2022-08-29T10:19:47.579Z,13784
2022-08-29T10:20:47.587Z,13704
2022-08-29T10:21:47.558Z,13316
2022-08-29T10:22:47.558Z,13624
2022-08-29T10:23:47.532Z,13228
2022-08-29T10:24:47.526Z,13276
2022-08-29T10:25:47.569Z,14404
2022-08-29T10:26:47.526Z,15080
2022-08-29T10:27:47.496Z,17824
2022-08-29T10:28:47.494Z,36544
2022-08-29T10:29:47.472Z,24768
2022-08-29T10:30:47.459Z,92896
2022-08-29T10:31:47.561Z,83744
2022-08-29T10:32:47.465Z,29536
2022-08-29T10:33:47.489Z,25344
2022-08-29T10:34:47.421Z,16892
2022-08-29T10:35:47.431Z,14552
2022-08-29T10:36:47.396Z,13336
2022-08-29T10:37:47.456Z,11888
2022-08-29T10:38:47.368Z,11192
2022-08-29T10:39:47.381Z,11872
2022-08-29T10:40:47.348Z,13552
2022-08-29T10:41:47.337Z,14792
2022-08-29T10:42:47.373Z,16424
2022-08-29T10:43:47.315Z,21120
2022-08-29T10:44:47.310Z,30368
2022-08-29T10:45:47.301Z,19328
2022-08-29T10:46:47.289Z,12600
2022-08-29T10:47:47.293Z,9800
2022-08-29T10:48:47.269Z,9028
2022-08-29T10:49:47.253Z,8408
2022-08-29T10:50:47.243Z,8052
2022-08-29T10:51:47.244Z,7440
2022-08-29T10:52:47.239Z,6876
2022-08-29T10:53:47.211Z,6568
2022-08-29T10:54:47.215Z,6560
2022-08-29T10:55:47.188Z,6792
2022-08-29T10:56:47.187Z,7320
2022-08-29T10:57:47.218Z,7756
2022-08-29T10:58:47.153Z,7996
2022-08-29T10:59:47.161Z,8688
2022-08-29T11:00:47.180Z,10316
2022-08-29T11:01:47.126Z,13160
2022-08-29T11:02:47.122Z,19712
2022-08-29T11:03:47.110Z,27296
2022-08-29T11:04:47.096Z,26432
2022-08-29T11:05:47.105Z,24736
2022-08-29T11:06:47.074Z,33152
2022-08-29T11:07:47.061Z,15900
2022-08-29T11:08:47.054Z,12476
2022-08-29T11:09:47.074Z,11300
2022-08-29T11:10:47.031Z,12080
2022-08-29T11:11:47.037Z,15444
2022-08-29T11:12:47.010Z,15436
2022-08-29T11:13:47.007Z,23232
2022-08-29T11:14:46.993Z,20736
2022-08-29T11:15:47.010Z,19904
2022-08-29T11:16:46.974Z,29632
2022-08-29T11:17:46.969Z,21696
2022-08-29T11:18:46.940Z,43040
2022-08-29T11:19:46.934Z,29312
2022-08-29T11:20:46.953Z,43168
2022-08-29T11:21:46.939Z,24960
2022-08-29T11:22:46.909Z,20672
2022-08-29T11:23:46.889Z,17984
2022-08-29T11:24:46.881Z,17440
2022-08-29T11:25:46.873Z,15992
2022-08-29T11:26:46.887Z,16304
2022-08-29T11:27:46.910Z,42624
2022-08-29T11:28:46.865Z,86560
2022-08-29T11:29:46.825Z,85056
2022-08-29T11:30:46.815Z,89408
2022-08-29T11:31:46.810Z,92992
2022-08-29T11:32:46.799Z,90048
2022-08-29T11:33:46.824Z,50400
2022-08-29T11:34:46.772Z,92672
2022-08-29T11:35:46.763Z,25248
2022-08-29T11:36:46.751Z,22432
2022-08-29T11:37:46.750Z,22272
2022-08-29T11:38:46.743Z,30944
2022-08-29T11:39:46.741Z,101088
2022-08-29T11:40:47.577Z,91360
2022-08-29T11:41:46.770Z,99488
2022-08-29T11:42:46.789Z,35840
2022-08-29T11:43:46.696Z,102016
2022-08-29T11:44:46.688Z,100416
2022-08-29T11:45:46.734Z,99520
2022-08-29T11:46:46.666Z,104000
2022-08-29T11:47:46.640Z,95264
2022-08-29T11:48:46.639Z,67680
2022-08-29T11:49:46.627Z,64288
2022-08-29T11:50:46.615Z,25856
2022-08-29T11:51:46.628Z,15140
2022-08-29T11:52:46.588Z,16828
2022-08-29T11:53:46.580Z,15476
2022-08-29T11:54:46.575Z,13144
2022-08-29T11:55:46.565Z,11556
2022-08-29T11:56:46.551Z,11172
2022-08-29T11:57:46.552Z,12532
2022-08-29T11:58:46.536Z,15968
2022-08-29T11:59:46.560Z,96224
2022-08-29T12:00:46.505Z,28448
2022-08-29T12:01:46.492Z,19200
2022-08-29T12:02:46.482Z,17792
2022-08-29T12:03:46.475Z,13172
2022-08-29T12:04:46.520Z,11252
2022-08-29T12:05:46.502Z,10508
2022-08-29T12:06:46.446Z,9760
2022-08-29T12:07:46.451Z,9680
2022-08-29T12:08:46.424Z,9344
2022-08-29T12:09:46.426Z,9520
2022-08-29T12:10:46.410Z,11472
2022-08-29T12:11:46.391Z,56448
2022-08-29T12:12:46.393Z,34112
2022-08-29T12:13:46.392Z,64224
2022-08-29T12:14:46.362Z,70400
2022-08-29T12:15:46.364Z,81056
2022-08-29T12:16:46.344Z,91456
2022-08-29T12:17:46.329Z,90848
2022-08-29T12:18:46.338Z,74816
2022-08-29T12:19:46.330Z,78432
2022-08-29T12:20:46.300Z,92064
2022-08-29T12:21:46.331Z,91872
2022-08-29T12:22:46.283Z,84448
2022-08-29T12:23:46.259Z,74752
2022-08-29T12:24:46.280Z,80640
2022-08-29T12:25:46.248Z,79872
2022-08-29T12:26:46.243Z,50720
2022-08-29T12:27:46.240Z,33632
2022-08-29T12:28:46.239Z,20736
2022-08-29T12:29:46.200Z,16644
2022-08-29T12:30:46.226Z,15992
2022-08-29T12:31:46.214Z,16320
2022-08-29T12:32:46.205Z,14800
2022-08-29T12:33:46.174Z,13556
2022-08-29T12:34:46.156Z,11420
2022-08-29T12:35:46.140Z,10356
2022-08-29T12:36:46.132Z,9364
2022-08-29T12:37:46.151Z,8352
2022-08-29T12:38:46.218Z,7680
2022-08-29T12:39:47.128Z,7600
2022-08-29T12:40:46.165Z,7032
2022-08-29T12:41:46.151Z,7080
2022-08-29T12:42:46.077Z,7580
2022-08-29T12:43:46.063Z,8452
2022-08-29T12:44:46.054Z,10152
2022-08-29T12:45:46.052Z,51072
2022-08-29T12:46:46.058Z,69216
2022-08-29T12:47:46.016Z,17792
2022-08-29T12:48:46.006Z,22592
2022-08-29T12:49:45.999Z,17044
2022-08-29T12:50:45.998Z,28608
2022-08-29T12:51:46.050Z,46240
2022-08-29T12:52:45.976Z,89472
2022-08-29T12:53:45.953Z,73344
2022-08-29T12:54:45.946Z,70656
2022-08-29T12:55:45.968Z,87840
2022-08-29T12:56:45.928Z,94656
2022-08-29T12:57:45.932Z,94848
2022-08-29T12:58:45.897Z,63584
2022-08-29T12:59:45.901Z,97280
2022-08-29T13:00:45.881Z,92704
2022-08-29T13:01:45.893Z,92288
2022-08-29T13:02:45.867Z,93056
2022-08-29T13:03:45.850Z,73472
2022-08-29T13:04:45.839Z,53696
2022-08-29T13:05:45.825Z,11516
2022-08-29T13:06:45.823Z,11096
2022-08-29T13:07:45.814Z,10432
2022-08-29T13:08:45.815Z,10360
2022-08-29T13:09:45.820Z,9792
2022-08-29T13:10:45.781Z,9720
2022-08-29T13:11:45.766Z,10036
2022-08-29T13:12:45.760Z,9544
2022-08-29T13:13:45.740Z,8816
2022-08-29T13:14:45.740Z,7780
2022-08-29T13:15:45.737Z,7236
2022-08-29T13:16:45.733Z,6720
2022-08-29T13:17:45.741Z,6476
2022-08-29T13:18:45.696Z,6696
2022-08-29T13:19:45.683Z,7112
2022-08-29T13:20:45.678Z,7616
2022-08-29T13:21:45.688Z,8832
2022-08-29T13:22:45.649Z,13496
2022-08-29T13:23:45.639Z,10608
2022-08-29T13:24:45.648Z,7836
2022-08-29T13:25:45.615Z,7840
2022-08-29T13:26:45.609Z,7428
2022-08-29T13:27:45.614Z,8112
2022-08-29T13:28:45.589Z,9960